sensor_id;sensor_type;location;lat;lon;timestamp;P1;durP1;ratioP1;P2;durP2;ratioP2
70010;SDS011;59543;37.950;-122.338;2022-07-29T00:00:59;13.48;;;2.80;;
70010;SDS011;59543;37.950;-122.338;2022-07-29T00:03:26;10.10;;;2.60;;
70010;SDS011;59543;37.950;-122.338;2022-07-29T00:05:52;13.10;;;2.72;;
70010;SDS011;59543;37.950;-122.338;2022-07-29T00:08:18;14.98;;;2.83;;
70010;SDS011;59543;37.950;-122.338;2022-07-29T00:10:45;18.40;;;2.80;;
70010;SDS011;59543;37.950;-122.338;2022-07-29T00:13:11;12.32;;;2.40;;
70010;SDS011;59543;37.950;-122.338;2022-07-29T00:15:37;13.18;;;2.72;;
70010;SDS011;59543;37.950;-122.338;2022-07-29T00:18:04;11.93;;;2.95;;
70010;SDS011;59543;37.950;-122.338;2022-07-29T00:20:30;10.82;;;2.50;;
70010;SDS011;59543;37.950;-122.338;2022-07-29T00:22:56;14.00;;;2.72;;
70010;SDS011;59543;37.950;-122.338;2022-07-29T00:25:22;11.88;;;2.50;;
70010;SDS011;59543;37.950;-122.338;2022-07-29T00:27:49;16.48;;;2.88;;
70010;SDS011;59543;37.950;-122.338;2022-07-29T00:30:15;11.85;;;2.42;;
70010;SDS011;59543;37.950;-122.338;2022-07-29T00:32:41;17.45;;;2.58;;
70010;SDS011;59543;37.950;-122.338;2022-07-29T00:35:08;11.95;;;2.30;;
70010;SDS011;59543;37.950;-122.338;2022-07-29T00:37:52;10.57;;;1.98;;
70010;SDS011;59543;37.950;-122.338;2022-07-29T00:40:18;15.73;;;2.50;;
70010;SDS011;59543;37.950;-122.338;2022-07-29T00:42:48;9.68;;;2.35;;
70010;SDS011;59543;37.950;-122.338;2022-07-29T00:45:16;12.85;;;2.88;;
70010;SDS011;59543;37.950;-122.338;2022-07-29T00:47:43;18.27;;;3.03;;
70010;SDS011;59543;37.950;-122.338;2022-07-29T00:50:11;16.60;;;3.13;;
70010;SDS011;59543;37.950;-122.338;2022-07-29T00:52:38;13.45;;;2.75;;
70010;SDS011;59543;37.950;-122.338;2022-07-29T00:55:08;13.73;;;2.80;;
70010;SDS011;59543;37.950;-122.338;2022-07-29T00:57:36;21.85;;;3.28;;
70010;SDS011;59543;37.950;-122.338;2022-07-29T01:00:04;12.80;;;2.83;;
70010;SDS011;59543;37.950;-122.338;2022-07-29T01:02:38;13.95;;;2.88;;
70010;SDS011;59543;37.950;-122.338;2022-07-29T01:05:04;18.30;;;3.50;;
70010;SDS011;59543;37.950;-122.338;2022-07-29T01:07:34;12.75;;;2.70;;
70010;SDS011;59543;37.950;-122.338;2022-07-29T01:10:05;12.50;;;2.65;;
70010;SDS011;59543;37.950;-122.338;2022-07-29T01:12:33;12.48;;;2.95;;
70010;SDS011;59543;37.950;-122.338;2022-07-29T01:15:01;18.50;;;3.20;;
70010;SDS011;59543;37.950;-122.338;2022-07-29T01:17:32;14.90;;;2.83;;
70010;SDS011;59543;37.950;-122.338;2022-07-29T01:25:44;13.23;;;3.03;;
70010;SDS011;59543;37.950;-122.338;2022-07-29T01:31:19;16.17;;;3.13;;
70010;SDS011;59543;37.950;-122.338;2022-07-29T01:33:53;14.57;;;2.70;;
70010;SDS011;59543;37.950;-122.338;2022-07-29T01:36:30;13.57;;;2.63;;
70010;SDS011;59543;37.950;-122.338;2022-07-29T01:39:11;11.00;;;2.60;;
70010;SDS011;59543;37.950;-122.338;2022-07-29T01:41:48;13.90;;;2.90;;
70010;SDS011;59543;37.950;-122.338;2022-07-29T01:44:30;11.02;;;2.38;;
70010;SDS011;59543;37.950;-122.338;2022-07-29T01:47:14;10.88;;;2.40;;
70010;SDS011;59543;37.950;-122.338;2022-07-29T01:49:47;15.43;;;2.80;;
70010;SDS011;59543;37.950;-122.338;2022-07-29T01:52:21;12.70;;;2.40;;
70010;SDS011;59543;37.950;-122.338;2022-07-29T01:54:57;12.30;;;2.92;;
70010;SDS011;59543;37.950;-122.338;2022-07-29T01:57:29;13.32;;;2.88;;
70010;SDS011;59543;37.950;-122.338;2022-07-29T01:59:57;11.77;;;2.58;;
70010;SDS011;59543;37.950;-122.338;2022-07-29T02:02:26;14.02;;;2.65;;
70010;SDS011;59543;37.950;-122.338;2022-07-29T02:04:54;10.35;;;2.80;;
70010;SDS011;59543;37.950;-122.338;2022-07-29T02:07:21;10.52;;;2.35;;
70010;SDS011;59543;37.950;-122.338;2022-07-29T02:09:50;12.98;;;3.30;;
70010;SDS011;59543;37.950;-122.338;2022-07-29T02:12:19;15.93;;;3.00;;
70010;SDS011;59543;37.950;-122.338;2022-07-29T02:14:48;16.27;;;2.78;;
70010;SDS011;59543;37.950;-122.338;2022-07-29T02:17:21;16.38;;;2.78;;
70010;SDS011;59543;37.950;-122.338;2022-07-29T02:19:52;18.88;;;3.08;;
70010;SDS011;59543;37.950;-122.338;2022-07-29T02:22:23;12.10;;;2.70;;
70010;SDS011;59543;37.950;-122.338;2022-07-29T02:24:52;10.32;;;2.85;;
70010;SDS011;59543;37.950;-122.338;2022-07-29T02:27:20;10.27;;;2.45;;
70010;SDS011;59543;37.950;-122.338;2022-07-29T02:29:48;12.75;;;2.78;;
70010;SDS011;59543;37.950;-122.338;2022-07-29T02:32:15;10.95;;;2.70;;
70010;SDS011;59543;37.950;-122.338;2022-07-29T02:34:43;14.05;;;2.63;;
70010;SDS011;59543;37.950;-122.338;2022-07-29T02:37:10;14.10;;;2.35;;
70010;SDS011;59543;37.950;-122.338;2022-07-29T02:39:39;11.05;;;2.30;;
70010;SDS011;59543;37.950;-122.338;2022-07-29T02:42:08;11.82;;;2.55;;
70010;SDS011;59543;37.950;-122.338;2022-07-29T02:44:38;11.07;;;2.08;;
70010;SDS011;59543;37.950;-122.338;2022-07-29T02:47:12;11.65;;;2.63;;
70010;SDS011;59543;37.950;-122.338;2022-07-29T02:49:44;14.10;;;2.65;;
70010;SDS011;59543;37.950;-122.338;2022-07-29T02:55:36;10.13;;;2.20;;
70010;SDS011;59543;37.950;-122.338;2022-07-29T03:00:41;7.00;;;1.98;;
70010;SDS011;59543;37.950;-122.338;2022-07-29T03:03:13;10.82;;;2.30;;
70010;SDS011;59543;37.950;-122.338;2022-07-29T03:05:42;11.98;;;2.53;;
70010;SDS011;59543;37.950;-122.338;2022-07-29T03:08:09;10.60;;;2.30;;
70010;SDS011;59543;37.950;-122.338;2022-07-29T03:10:37;12.15;;;2.28;;
70010;SDS011;59543;37.950;-122.338;2022-07-29T03:13:08;9.32;;;2.38;;
70010;SDS011;59543;37.950;-122.338;2022-07-29T03:15:35;7.35;;;1.58;;
70010;SDS011;59543;37.950;-122.338;2022-07-29T03:18:02;8.07;;;1.90;;
70010;SDS011;59543;37.950;-122.338;2022-07-29T03:20:30;9.68;;;2.28;;
70010;SDS011;59543;37.950;-122.338;2022-07-29T03:22:57;10.90;;;2.00;;
70010;SDS011;59543;37.950;-122.338;2022-07-29T03:25:23;6.95;;;2.00;;
70010;SDS011;59543;37.950;-122.338;2022-07-29T03:27:50;7.72;;;1.88;;
70010;SDS011;59543;37.950;-122.338;2022-07-29T03:30:16;6.40;;;1.73;;
70010;SDS011;59543;37.950;-122.338;2022-07-29T03:32:42;10.18;;;2.10;;
70010;SDS011;59543;37.950;-122.338;2022-07-29T03:35:09;6.72;;;2.10;;
70010;SDS011;59543;37.950;-122.338;2022-07-29T03:37:35;7.82;;;1.70;;
70010;SDS011;59543;37.950;-122.338;2022-07-29T03:40:03;6.78;;;1.80;;
70010;SDS011;59543;37.950;-122.338;2022-07-29T03:42:35;6.05;;;1.55;;
70010;SDS011;59543;37.950;-122.338;2022-07-29T03:45:06;8.68;;;2.20;;
70010;SDS011;59543;37.950;-122.338;2022-07-29T03:47:37;9.48;;;2.13;;
70010;SDS011;59543;37.950;-122.338;2022-07-29T03:50:08;8.75;;;2.03;;
70010;SDS011;59543;37.950;-122.338;2022-07-29T03:52:38;8.13;;;1.90;;
70010;SDS011;59543;37.950;-122.338;2022-07-29T03:55:04;4.90;;;1.48;;
70010;SDS011;59543;37.950;-122.338;2022-07-29T03:57:31;9.63;;;2.03;;
70010;SDS011;59543;37.950;-122.338;2022-07-29T03:59:59;4.90;;;1.08;;
70010;SDS011;59543;37.950;-122.338;2022-07-29T04:02:26;6.05;;;1.10;;
70010;SDS011;59543;37.950;-122.338;2022-07-29T04:04:53;4.70;;;1.27;;
70010;SDS011;59543;37.950;-122.338;2022-07-29T04:07:19;3.75;;;1.33;;
70010;SDS011;59543;37.950;-122.338;2022-07-29T04:09:45;5.10;;;1.27;;
70010;SDS011;59543;37.950;-122.338;2022-07-29T04:12:12;5.57;;;1.02;;
70010;SDS011;59543;37.950;-122.338;2022-07-29T04:14:38;5.88;;;1.20;;
70010;SDS011;59543;37.950;-122.338;2022-07-29T04:17:04;5.25;;;1.42;;
70010;SDS011;59543;37.950;-122.338;2022-07-29T04:19:31;4.93;;;1.30;;
70010;SDS011;59543;37.950;-122.338;2022-07-29T04:21:58;4.70;;;1.10;;
70010;SDS011;59543;37.950;-122.338;2022-07-29T04:24:25;4.25;;;1.30;;
70010;SDS011;59543;37.950;-122.338;2022-07-29T04:26:52;5.10;;;1.10;;
70010;SDS011;59543;37.950;-122.338;2022-07-29T04:29:18;6.30;;;1.13;;
70010;SDS011;59543;37.950;-122.338;2022-07-29T04:31:45;4.15;;;1.52;;
70010;SDS011;59543;37.950;-122.338;2022-07-29T04:34:11;5.30;;;1.10;;
70010;SDS011;59543;37.950;-122.338;2022-07-29T04:36:38;2.28;;;0.68;;
70010;SDS011;59543;37.950;-122.338;2022-07-29T04:39:04;4.30;;;1.13;;
70010;SDS011;59543;37.950;-122.338;2022-07-29T04:41:30;4.20;;;1.20;;
70010;SDS011;59543;37.950;-122.338;2022-07-29T04:43:57;2.85;;;0.82;;
70010;SDS011;59543;37.950;-122.338;2022-07-29T04:46:25;4.20;;;0.98;;
70010;SDS011;59543;37.950;-122.338;2022-07-29T04:48:52;4.07;;;1.17;;
70010;SDS011;59543;37.950;-122.338;2022-07-29T04:51:18;3.08;;;0.90;;
70010;SDS011;59543;37.950;-122.338;2022-07-29T04:53:44;6.38;;;1.08;;
70010;SDS011;59543;37.950;-122.338;2022-07-29T04:56:10;3.38;;;0.95;;
70010;SDS011;59543;37.950;-122.338;2022-07-29T04:58:37;4.07;;;1.00;;
70010;SDS011;59543;37.950;-122.338;2022-07-29T05:01:03;2.58;;;0.95;;
70010;SDS011;59543;37.950;-122.338;2022-07-29T05:03:29;4.20;;;0.95;;
70010;SDS011;59543;37.950;-122.338;2022-07-29T05:05:55;5.32;;;0.90;;
70010;SDS011;59543;37.950;-122.338;2022-07-29T05:08:22;7.47;;;1.08;;
70010;SDS011;59543;37.950;-122.338;2022-07-29T05:10:48;3.53;;;0.90;;
70010;SDS011;59543;37.950;-122.338;2022-07-29T05:13:14;4.38;;;0.82;;
70010;SDS011;59543;37.950;-122.338;2022-07-29T05:15:41;2.38;;;0.88;;
70010;SDS011;59543;37.950;-122.338;2022-07-29T05:18:07;4.57;;;1.02;;
70010;SDS011;59543;37.950;-122.338;2022-07-29T05:20:33;4.20;;;0.98;;
70010;SDS011;59543;37.950;-122.338;2022-07-29T05:23:00;1.98;;;0.60;;
70010;SDS011;59543;37.950;-122.338;2022-07-29T05:25:27;5.78;;;1.00;;
70010;SDS011;59543;37.950;-122.338;2022-07-29T05:27:55;4.70;;;0.98;;
70010;SDS011;59543;37.950;-122.338;2022-07-29T05:30:21;6.18;;;1.23;;
70010;SDS011;59543;37.950;-122.338;2022-07-29T05:32:48;4.15;;;1.10;;
70010;SDS011;59543;37.950;-122.338;2022-07-29T05:35:14;5.13;;;1.17;;
70010;SDS011;59543;37.950;-122.338;2022-07-29T05:37:41;7.43;;;1.30;;
70010;SDS011;59543;37.950;-122.338;2022-07-29T05:40:08;3.88;;;1.13;;
70010;SDS011;59543;37.950;-122.338;2022-07-29T05:42:35;4.47;;;1.25;;
70010;SDS011;59543;37.950;-122.338;2022-07-29T05:45:01;3.20;;;1.17;;
70010;SDS011;59543;37.950;-122.338;2022-07-29T05:47:29;7.07;;;1.63;;
70010;SDS011;59543;37.950;-122.338;2022-07-29T05:49:55;5.25;;;1.42;;
70010;SDS011;59543;37.950;-122.338;2022-07-29T05:52:22;4.05;;;1.10;;
70010;SDS011;59543;37.950;-122.338;2022-07-29T05:54:48;3.70;;;0.93;;
70010;SDS011;59543;37.950;-122.338;2022-07-29T05:57:18;8.52;;;1.77;;
70010;SDS011;59543;37.950;-122.338;2022-07-29T05:59:46;5.78;;;1.38;;
70010;SDS011;59543;37.950;-122.338;2022-07-29T06:02:13;9.73;;;1.92;;
70010;SDS011;59543;37.950;-122.338;2022-07-29T06:04:39;8.27;;;1.58;;
70010;SDS011;59543;37.950;-122.338;2022-07-29T06:07:05;8.07;;;1.92;;
70010;SDS011;59543;37.950;-122.338;2022-07-29T06:09:32;11.02;;;2.78;;
70010;SDS011;59543;37.950;-122.338;2022-07-29T06:11:59;11.68;;;2.75;;
70010;SDS011;59543;37.950;-122.338;2022-07-29T06:14:26;7.03;;;1.90;;
70010;SDS011;59543;37.950;-122.338;2022-07-29T06:16:53;7.65;;;2.00;;
70010;SDS011;59543;37.950;-122.338;2022-07-29T06:19:20;13.35;;;2.65;;
70010;SDS011;59543;37.950;-122.338;2022-07-29T06:21:47;10.02;;;2.38;;
70010;SDS011;59543;37.950;-122.338;2022-07-29T06:24:13;10.98;;;2.72;;
70010;SDS011;59543;37.950;-122.338;2022-07-29T06:26:40;10.20;;;2.78;;
70010;SDS011;59543;37.950;-122.338;2022-07-29T06:29:07;8.18;;;2.15;;
70010;SDS011;59543;37.950;-122.338;2022-07-29T06:31:35;9.48;;;2.40;;
70010;SDS011;59543;37.950;-122.338;2022-07-29T06:34:02;13.57;;;2.55;;
70010;SDS011;59543;37.950;-122.338;2022-07-29T06:36:29;10.55;;;2.63;;
70010;SDS011;59543;37.950;-122.338;2022-07-29T06:38:55;8.15;;;2.10;;
70010;SDS011;59543;37.950;-122.338;2022-07-29T06:41:22;7.10;;;1.83;;
70010;SDS011;59543;37.950;-122.338;2022-07-29T06:43:48;8.95;;;1.70;;
70010;SDS011;59543;37.950;-122.338;2022-07-29T06:46:16;11.27;;;2.10;;
70010;SDS011;59543;37.950;-122.338;2022-07-29T06:48:44;7.85;;;1.60;;
70010;SDS011;59543;37.950;-122.338;2022-07-29T06:51:12;9.85;;;1.70;;
70010;SDS011;59543;37.950;-122.338;2022-07-29T06:53:39;6.20;;;1.50;;
70010;SDS011;59543;37.950;-122.338;2022-07-29T06:56:06;8.30;;;1.70;;
70010;SDS011;59543;37.950;-122.338;2022-07-29T06:58:37;5.95;;;1.40;;
70010;SDS011;59543;37.950;-122.338;2022-07-29T07:01:04;7.82;;;1.35;;
70010;SDS011;59543;37.950;-122.338;2022-07-29T07:03:31;9.68;;;1.50;;
70010;SDS011;59543;37.950;-122.338;2022-07-29T07:05:58;5.88;;;1.20;;
70010;SDS011;59543;37.950;-122.338;2022-07-29T07:08:25;4.88;;;1.33;;
70010;SDS011;59543;37.950;-122.338;2022-07-29T07:10:51;5.32;;;1.30;;
70010;SDS011;59543;37.950;-122.338;2022-07-29T07:13:18;5.90;;;1.05;;
70010;SDS011;59543;37.950;-122.338;2022-07-29T07:15:45;4.85;;;1.27;;
70010;SDS011;59543;37.950;-122.338;2022-07-29T07:18:14;3.85;;;1.00;;
70010;SDS011;59543;37.950;-122.338;2022-07-29T07:20:41;3.33;;;0.90;;
70010;SDS011;59543;37.950;-122.338;2022-07-29T07:23:07;4.25;;;0.82;;
70010;SDS011;59543;37.950;-122.338;2022-07-29T07:25:34;3.63;;;0.82;;
70010;SDS011;59543;37.950;-122.338;2022-07-29T07:28:00;5.25;;;1.20;;
70010;SDS011;59543;37.950;-122.338;2022-07-29T07:30:26;4.68;;;1.15;;
70010;SDS011;59543;37.950;-122.338;2022-07-29T07:32:53;4.82;;;1.00;;
70010;SDS011;59543;37.950;-122.338;2022-07-29T07:35:20;3.80;;;0.75;;
70010;SDS011;59543;37.950;-122.338;2022-07-29T07:37:47;2.90;;;0.70;;
70010;SDS011;59543;37.950;-122.338;2022-07-29T07:40:13;3.28;;;0.90;;
70010;SDS011;59543;37.950;-122.338;2022-07-29T07:42:40;2.88;;;0.80;;
70010;SDS011;59543;37.950;-122.338;2022-07-29T07:45:07;6.78;;;0.80;;
70010;SDS011;59543;37.950;-122.338;2022-07-29T07:47:37;4.90;;;0.90;;
70010;SDS011;59543;37.950;-122.338;2022-07-29T07:50:07;7.00;;;0.85;;
70010;SDS011;59543;37.950;-122.338;2022-07-29T07:52:45;4.28;;;0.80;;
70010;SDS011;59543;37.950;-122.338;2022-07-29T07:55:15;2.10;;;0.60;;
70010;SDS011;59543;37.950;-122.338;2022-07-29T07:57:42;2.65;;;0.73;;
70010;SDS011;59543;37.950;-122.338;2022-07-29T08:00:09;2.05;;;0.80;;
70010;SDS011;59543;37.950;-122.338;2022-07-29T08:02:35;2.70;;;0.57;;
70010;SDS011;59543;37.950;-122.338;2022-07-29T08:05:01;2.97;;;0.82;;
70010;SDS011;59543;37.950;-122.338;2022-07-29T08:07:28;3.33;;;0.70;;
70010;SDS011;59543;37.950;-122.338;2022-07-29T08:09:54;4.40;;;1.05;;
70010;SDS011;59543;37.950;-122.338;2022-07-29T08:12:20;2.67;;;1.05;;
70010;SDS011;59543;37.950;-122.338;2022-07-29T08:14:46;3.67;;;0.80;;
70010;SDS011;59543;37.950;-122.338;2022-07-29T08:17:12;1.98;;;0.60;;
70010;SDS011;59543;37.950;-122.338;2022-07-29T08:19:39;19.67;;;1.30;;
70010;SDS011;59543;37.950;-122.338;2022-07-29T08:22:05;4.55;;;0.85;;
70010;SDS011;59543;37.950;-122.338;2022-07-29T08:24:31;3.40;;;0.90;;
70010;SDS011;59543;37.950;-122.338;2022-07-29T08:27:11;3.67;;;0.90;;
70010;SDS011;59543;37.950;-122.338;2022-07-29T08:29:39;1.95;;;0.55;;
70010;SDS011;59543;37.950;-122.338;2022-07-29T08:32:05;3.38;;;0.80;;
70010;SDS011;59543;37.950;-122.338;2022-07-29T08:34:31;3.95;;;0.90;;
70010;SDS011;59543;37.950;-122.338;2022-07-29T08:36:58;4.25;;;1.00;;
70010;SDS011;59543;37.950;-122.338;2022-07-29T08:39:24;4.82;;;1.38;;
70010;SDS011;59543;37.950;-122.338;2022-07-29T08:41:51;3.08;;;1.10;;
70010;SDS011;59543;37.950;-122.338;2022-07-29T08:44:18;1.98;;;0.70;;
70010;SDS011;59543;37.950;-122.338;2022-07-29T08:46:47;2.58;;;0.70;;
70010;SDS011;59543;37.950;-122.338;2022-07-29T08:49:14;5.13;;;0.98;;
70010;SDS011;59543;37.950;-122.338;2022-07-29T08:51:41;2.88;;;0.68;;
70010;SDS011;59543;37.950;-122.338;2022-07-29T08:54:09;3.20;;;0.85;;
70010;SDS011;59543;37.950;-122.338;2022-07-29T08:56:36;2.92;;;0.75;;
70010;SDS011;59543;37.950;-122.338;2022-07-29T08:59:04;2.30;;;0.70;;
70010;SDS011;59543;37.950;-122.338;2022-07-29T09:01:32;4.47;;;1.13;;
70010;SDS011;59543;37.950;-122.338;2022-07-29T09:03:59;2.70;;;0.82;;
70010;SDS011;59543;37.950;-122.338;2022-07-29T09:06:29;2.90;;;0.85;;
70010;SDS011;59543;37.950;-122.338;2022-07-29T09:08:59;5.95;;;0.98;;
70010;SDS011;59543;37.950;-122.338;2022-07-29T09:11:26;2.47;;;0.60;;
70010;SDS011;59543;37.950;-122.338;2022-07-29T09:13:53;4.10;;;0.98;;
70010;SDS011;59543;37.950;-122.338;2022-07-29T09:16:19;1.58;;;0.60;;
70010;SDS011;59543;37.950;-122.338;2022-07-29T09:18:45;5.18;;;0.88;;
70010;SDS011;59543;37.950;-122.338;2022-07-29T09:21:13;2.38;;;0.60;;
70010;SDS011;59543;37.950;-122.338;2022-07-29T09:26:34;3.70;;;0.70;;
70010;SDS011;59543;37.950;-122.338;2022-07-29T09:29:08;4.22;;;0.73;;
70010;SDS011;59543;37.950;-122.338;2022-07-29T09:31:37;2.83;;;0.68;;
70010;SDS011;59543;37.950;-122.338;2022-07-29T09:34:06;5.00;;;0.60;;
70010;SDS011;59543;37.950;-122.338;2022-07-29T09:36:40;2.45;;;0.68;;
70010;SDS011;59543;37.950;-122.338;2022-07-29T09:39:10;3.15;;;0.70;;
70010;SDS011;59543;37.950;-122.338;2022-07-29T09:41:44;2.40;;;0.70;;
70010;SDS011;59543;37.950;-122.338;2022-07-29T09:44:11;2.33;;;0.55;;
70010;SDS011;59543;37.950;-122.338;2022-07-29T09:46:37;2.25;;;0.57;;
70010;SDS011;59543;37.950;-122.338;2022-07-29T09:51:37;3.97;;;0.65;;
70010;SDS011;59543;37.950;-122.338;2022-07-29T09:54:24;2.95;;;0.55;;
70010;SDS011;59543;37.950;-122.338;2022-07-29T09:56:53;4.43;;;0.90;;
70010;SDS011;59543;37.950;-122.338;2022-07-29T09:59:20;3.67;;;0.65;;
70010;SDS011;59543;37.950;-122.338;2022-07-29T10:01:51;1.65;;;0.47;;
70010;SDS011;59543;37.950;-122.338;2022-07-29T10:04:18;3.45;;;0.82;;
70010;SDS011;59543;37.950;-122.338;2022-07-29T10:06:58;2.10;;;0.52;;
70010;SDS011;59543;37.950;-122.338;2022-07-29T10:09:25;1.48;;;0.50;;
70010;SDS011;59543;37.950;-122.338;2022-07-29T10:12:05;3.08;;;0.63;;
70010;SDS011;59543;37.950;-122.338;2022-07-29T10:14:41;2.55;;;0.63;;
70010;SDS011;59543;37.950;-122.338;2022-07-29T10:17:08;3.17;;;0.70;;
70010;SDS011;59543;37.950;-122.338;2022-07-29T10:19:36;2.67;;;0.60;;
70010;SDS011;59543;37.950;-122.338;2022-07-29T10:22:06;0.95;;;0.30;;
70010;SDS011;59543;37.950;-122.338;2022-07-29T10:24:34;4.47;;;0.95;;
70010;SDS011;59543;37.950;-122.338;2022-07-29T10:27:03;2.65;;;0.60;;
70010;SDS011;59543;37.950;-122.338;2022-07-29T10:29:31;1.00;;;0.45;;
70010;SDS011;59543;37.950;-122.338;2022-07-29T10:43:17;1.85;;;0.60;;
70010;SDS011;59543;37.950;-122.338;2022-07-29T10:45:49;3.55;;;0.80;;
70010;SDS011;59543;37.950;-122.338;2022-07-29T10:48:21;1.63;;;0.68;;
70010;SDS011;59543;37.950;-122.338;2022-07-29T10:53:47;5.10;;;0.70;;
70010;SDS011;59543;37.950;-122.338;2022-07-29T10:56:25;4.07;;;0.80;;
70010;SDS011;59543;37.950;-122.338;2022-07-29T11:01:47;2.05;;;0.52;;
70010;SDS011;59543;37.950;-122.338;2022-07-29T11:04:15;3.22;;;0.68;;
70010;SDS011;59543;37.950;-122.338;2022-07-29T11:09:27;3.30;;;0.68;;
70010;SDS011;59543;37.950;-122.338;2022-07-29T11:11:58;2.58;;;0.60;;
70010;SDS011;59543;37.950;-122.338;2022-07-29T11:14:58;7.05;;;0.98;;
70010;SDS011;59543;37.950;-122.338;2022-07-29T11:17:22;3.55;;;0.80;;
70010;SDS011;59543;37.950;-122.338;2022-07-29T11:19:49;4.10;;;0.82;;
70010;SDS011;59543;37.950;-122.338;2022-07-29T11:22:31;3.85;;;0.68;;
70010;SDS011;59543;37.950;-122.338;2022-07-29T11:25:13;2.50;;;0.63;;
70010;SDS011;59543;37.950;-122.338;2022-07-29T11:27:44;2.28;;;0.68;;
70010;SDS011;59543;37.950;-122.338;2022-07-29T11:30:10;3.00;;;0.63;;
70010;SDS011;59543;37.950;-122.338;2022-07-29T11:32:40;3.80;;;0.65;;
70010;SDS011;59543;37.950;-122.338;2022-07-29T11:35:12;2.80;;;0.57;;
70010;SDS011;59543;37.950;-122.338;2022-07-29T11:37:38;2.00;;;0.50;;
70010;SDS011;59543;37.950;-122.338;2022-07-29T11:48:14;2.55;;;0.70;;
70010;SDS011;59543;37.950;-122.338;2022-07-29T11:50:30;4.95;;;0.73;;
70010;SDS011;59543;37.950;-122.338;2022-07-29T11:52:59;1.70;;;0.30;;
70010;SDS011;59543;37.950;-122.338;2022-07-29T11:55:26;2.65;;;0.52;;
70010;SDS011;59543;37.950;-122.338;2022-07-29T11:57:56;1.65;;;0.60;;
70010;SDS011;59543;37.950;-122.338;2022-07-29T12:02:50;1.85;;;0.47;;
70010;SDS011;59543;37.950;-122.338;2022-07-29T12:05:17;1.88;;;0.32;;
70010;SDS011;59543;37.950;-122.338;2022-07-29T12:07:44;1.85;;;0.30;;
70010;SDS011;59543;37.950;-122.338;2022-07-29T12:10:11;1.65;;;0.40;;
70010;SDS011;59543;37.950;-122.338;2022-07-29T12:12:37;3.35;;;0.40;;
70010;SDS011;59543;37.950;-122.338;2022-07-29T12:15:14;2.58;;;0.50;;
70010;SDS011;59543;37.950;-122.338;2022-07-29T12:17:43;2.58;;;0.85;;
70010;SDS011;59543;37.950;-122.338;2022-07-29T12:20:09;2.58;;;0.43;;
70010;SDS011;59543;37.950;-122.338;2022-07-29T12:22:37;3.00;;;0.77;;
70010;SDS011;59543;37.950;-122.338;2022-07-29T12:25:13;4.40;;;0.47;;
70010;SDS011;59543;37.950;-122.338;2022-07-29T12:27:41;2.03;;;0.52;;
70010;SDS011;59543;37.950;-122.338;2022-07-29T12:30:12;1.70;;;0.50;;
70010;SDS011;59543;37.950;-122.338;2022-07-29T12:32:42;3.15;;;0.55;;
70010;SDS011;59543;37.950;-122.338;2022-07-29T12:35:17;2.58;;;0.50;;
70010;SDS011;59543;37.950;-122.338;2022-07-29T12:37:45;2.60;;;0.50;;
70010;SDS011;59543;37.950;-122.338;2022-07-29T12:40:14;3.03;;;0.90;;
70010;SDS011;59543;37.950;-122.338;2022-07-29T12:43:04;2.45;;;0.68;;
70010;SDS011;59543;37.950;-122.338;2022-07-29T12:45:31;2.55;;;0.70;;
70010;SDS011;59543;37.950;-122.338;2022-07-29T12:47:57;3.13;;;0.73;;
70010;SDS011;59543;37.950;-122.338;2022-07-29T12:50:23;1.98;;;0.60;;
70010;SDS011;59543;37.950;-122.338;2022-07-29T12:52:50;2.95;;;0.60;;
70010;SDS011;59543;37.950;-122.338;2022-07-29T12:55:37;6.10;;;0.90;;
70010;SDS011;59543;37.950;-122.338;2022-07-29T12:58:06;3.28;;;0.55;;
70010;SDS011;59543;37.950;-122.338;2022-07-29T13:00:33;3.55;;;0.80;;
70010;SDS011;59543;37.950;-122.338;2022-07-29T13:02:59;3.80;;;0.65;;
70010;SDS011;59543;37.950;-122.338;2022-07-29T13:05:39;2.28;;;0.70;;
70010;SDS011;59543;37.950;-122.338;2022-07-29T13:08:10;3.78;;;0.65;;
70010;SDS011;59543;37.950;-122.338;2022-07-29T13:10:37;2.55;;;0.73;;
70010;SDS011;59543;37.950;-122.338;2022-07-29T13:13:08;1.92;;;0.60;;
70010;SDS011;59543;37.950;-122.338;2022-07-29T13:15:43;2.70;;;0.80;;
70010;SDS011;59543;37.950;-122.338;2022-07-29T13:21:19;1.75;;;0.50;;
70010;SDS011;59543;37.950;-122.338;2022-07-29T13:23:44;3.03;;;0.90;;
70010;SDS011;59543;37.950;-122.338;2022-07-29T13:26:11;3.03;;;0.70;;
70010;SDS011;59543;37.950;-122.338;2022-07-29T13:28:37;2.60;;;0.75;;
70010;SDS011;59543;37.950;-122.338;2022-07-29T13:31:04;2.78;;;0.90;;
70010;SDS011;59543;37.950;-122.338;2022-07-29T13:33:30;3.22;;;0.80;;
70010;SDS011;59543;37.950;-122.338;2022-07-29T13:35:56;3.35;;;0.60;;
70010;SDS011;59543;37.950;-122.338;2022-07-29T13:38:23;2.95;;;0.82;;
70010;SDS011;59543;37.950;-122.338;2022-07-29T13:40:49;2.40;;;0.55;;
70010;SDS011;59543;37.950;-122.338;2022-07-29T13:43:15;1.48;;;0.50;;
70010;SDS011;59543;37.950;-122.338;2022-07-29T13:45:41;7.10;;;1.00;;
70010;SDS011;59543;37.950;-122.338;2022-07-29T13:48:08;2.50;;;0.73;;
70010;SDS011;59543;37.950;-122.338;2022-07-29T13:50:34;2.85;;;0.70;;
70010;SDS011;59543;37.950;-122.338;2022-07-29T13:53:00;2.15;;;0.55;;
70010;SDS011;59543;37.950;-122.338;2022-07-29T13:55:26;1.95;;;0.57;;
70010;SDS011;59543;37.950;-122.338;2022-07-29T13:57:52;3.13;;;0.73;;
70010;SDS011;59543;37.950;-122.338;2022-07-29T14:00:19;2.40;;;0.52;;
70010;SDS011;59543;37.950;-122.338;2022-07-29T14:02:45;2.28;;;0.60;;
70010;SDS011;59543;37.950;-122.338;2022-07-29T14:05:12;3.03;;;0.32;;
70010;SDS011;59543;37.950;-122.338;2022-07-29T14:07:38;1.65;;;0.40;;
70010;SDS011;59543;37.950;-122.338;2022-07-29T14:10:04;3.35;;;0.50;;
70010;SDS011;59543;37.950;-122.338;2022-07-29T14:12:31;3.33;;;0.63;;
70010;SDS011;59543;37.950;-122.338;2022-07-29T14:14:57;2.83;;;0.60;;
70010;SDS011;59543;37.950;-122.338;2022-07-29T14:17:24;3.05;;;0.50;;
70010;SDS011;59543;37.950;-122.338;2022-07-29T14:19:50;3.08;;;0.80;;
70010;SDS011;59543;37.950;-122.338;2022-07-29T14:22:16;2.47;;;0.50;;
70010;SDS011;59543;37.950;-122.338;2022-07-29T14:24:44;3.20;;;0.60;;
70010;SDS011;59543;37.950;-122.338;2022-07-29T14:27:10;4.22;;;0.52;;
70010;SDS011;59543;37.950;-122.338;2022-07-29T14:29:37;2.63;;;0.50;;
70010;SDS011;59543;37.950;-122.338;2022-07-29T14:32:04;1.42;;;0.43;;
70010;SDS011;59543;37.950;-122.338;2022-07-29T14:34:32;4.15;;;0.32;;
70010;SDS011;59543;37.950;-122.338;2022-07-29T14:36:58;1.88;;;0.40;;
70010;SDS011;59543;37.950;-122.338;2022-07-29T14:39:24;1.17;;;0.35;;
70010;SDS011;59543;37.950;-122.338;2022-07-29T14:41:50;2.90;;;0.40;;
70010;SDS011;59543;37.950;-122.338;2022-07-29T14:44:17;1.30;;;0.40;;
70010;SDS011;59543;37.950;-122.338;2022-07-29T14:46:43;3.65;;;0.40;;
70010;SDS011;59543;37.950;-122.338;2022-07-29T14:49:09;1.65;;;0.60;;
70010;SDS011;59543;37.950;-122.338;2022-07-29T14:51:36;0.63;;;0.22;;
70010;SDS011;59543;37.950;-122.338;2022-07-29T14:54:02;2.03;;;0.30;;
70010;SDS011;59543;37.950;-122.338;2022-07-29T14:56:29;4.75;;;0.50;;
70010;SDS011;59543;37.950;-122.338;2022-07-29T14:58:55;1.80;;;0.40;;
70010;SDS011;59543;37.950;-122.338;2022-07-29T15:01:22;3.55;;;0.22;;
70010;SDS011;59543;37.950;-122.338;2022-07-29T15:03:50;3.00;;;0.28;;
70010;SDS011;59543;37.950;-122.338;2022-07-29T15:06:16;1.52;;;0.28;;